sensor_id;sensor_type;location;lat;lon;timestamp;temperature;humidity
14737;DHT22;7459;53.590;10.062;2023-08-06T00:00:25;17.10;99.90
14737;DHT22;7459;53.590;10.062;2023-08-06T00:02:51;17.20;99.90
14737;DHT22;7459;53.590;10.062;2023-08-06T00:05:16;17.20;99.90
14737;DHT22;7459;53.590;10.062;2023-08-06T00:07:50;17.30;99.90
14737;DHT22;7459;53.590;10.062;2023-08-06T00:10:16;17.30;99.90
14737;DHT22;7459;53.590;10.062;2023-08-06T00:12:43;17.30;99.90
14737;DHT22;7459;53.590;10.062;2023-08-06T00:15:10;17.30;99.90
14737;DHT22;7459;53.590;10.062;2023-08-06T00:17:36;17.30;99.90
14737;DHT22;7459;53.590;10.062;2023-08-06T00:20:03;17.30;99.90
14737;DHT22;7459;53.590;10.062;2023-08-06T00:24:58;17.30;99.90
14737;DHT22;7459;53.590;10.062;2023-08-06T00:27:25;17.20;99.90
14737;DHT22;7459;53.590;10.062;2023-08-06T00:29:50;17.20;99.90
14737;DHT22;7459;53.590;10.062;2023-08-06T00:32:16;17.20;99.90
14737;DHT22;7459;53.590;10.062;2023-08-06T00:34:42;17.20;99.90
14737;DHT22;7459;53.590;10.062;2023-08-06T00:37:08;17.20;99.90
14737;DHT22;7459;53.590;10.062;2023-08-06T00:39:34;17.20;99.90
14737;DHT22;7459;53.590;10.062;2023-08-06T00:41:59;17.20;99.90
14737;DHT22;7459;53.590;10.062;2023-08-06T00:44:25;17.20;99.90
14737;DHT22;7459;53.590;10.062;2023-08-06T00:46:51;17.20;99.90
14737;DHT22;7459;53.590;10.062;2023-08-06T00:49:16;17.20;99.90
14737;DHT22;7459;53.590;10.062;2023-08-06T00:51:42;17.20;99.90
14737;DHT22;7459;53.590;10.062;2023-08-06T00:54:09;17.20;99.90
14737;DHT22;7459;53.590;10.062;2023-08-06T00:56:35;17.30;99.90
14737;DHT22;7459;53.590;10.062;2023-08-06T00:59:05;17.20;99.90
14737;DHT22;7459;53.590;10.062;2023-08-06T01:01:31;17.30;99.90
14737;DHT22;7459;53.590;10.062;2023-08-06T01:03:57;17.20;99.90
14737;DHT22;7459;53.590;10.062;2023-08-06T01:06:33;17.30;99.90
14737;DHT22;7459;53.590;10.062;2023-08-06T01:15:26;17.20;99.90
14737;DHT22;7459;53.590;10.062;2023-08-06T01:17:53;17.20;99.90
14737;DHT22;7459;53.590;10.062;2023-08-06T01:20:19;17.20;99.90
14737;DHT22;7459;53.590;10.062;2023-08-06T01:22:45;17.10;99.90
14737;DHT22;7459;53.590;10.062;2023-08-06T01:25:14;17.10;99.90
14737;DHT22;7459;53.590;10.062;2023-08-06T01:27:47;17.10;99.90
14737;DHT22;7459;53.590;10.062;2023-08-06T01:30:27;17.10;99.90
14737;DHT22;7459;53.590;10.062;2023-08-06T01:32:59;17.20;99.90
14737;DHT22;7459;53.590;10.062;2023-08-06T01:35:27;17.20;99.90
14737;DHT22;7459;53.590;10.062;2023-08-06T01:37:54;17.10;99.90
14737;DHT22;7459;53.590;10.062;2023-08-06T01:40:21;17.10;99.90
14737;DHT22;7459;53.590;10.062;2023-08-06T01:42:47;17.10;99.90
14737;DHT22;7459;53.590;10.062;2023-08-06T01:45:13;17.10;99.90
14737;DHT22;7459;53.590;10.062;2023-08-06T01:47:38;17.20;99.90
14737;DHT22;7459;53.590;10.062;2023-08-06T01:50:04;17.10;99.90
14737;DHT22;7459;53.590;10.062;2023-08-06T01:52:30;17.10;99.90
14737;DHT22;7459;53.590;10.062;2023-08-06T01:54:56;17.10;99.90
14737;DHT22;7459;53.590;10.062;2023-08-06T01:57:22;17.00;99.90
14737;DHT22;7459;53.590;10.062;2023-08-06T01:59:48;17.10;99.90
14737;DHT22;7459;53.590;10.062;2023-08-06T02:02:13;17.00;99.90
14737;DHT22;7459;53.590;10.062;2023-08-06T02:07:14;17.00;99.90
14737;DHT22;7459;53.590;10.062;2023-08-06T02:09:40;17.00;99.90
14737;DHT22;7459;53.590;10.062;2023-08-06T02:12:07;17.00;99.90
14737;DHT22;7459;53.590;10.062;2023-08-06T02:14:33;17.00;99.90
14737;DHT22;7459;53.590;10.062;2023-08-06T02:16:59;17.00;99.90
14737;DHT22;7459;53.590;10.062;2023-08-06T02:19:25;17.00;99.90
14737;DHT22;7459;53.590;10.062;2023-08-06T02:21:51;17.00;99.90
14737;DHT22;7459;53.590;10.062;2023-08-06T02:24:16;17.00;99.90
14737;DHT22;7459;53.590;10.062;2023-08-06T02:26:42;17.00;99.90
14737;DHT22;7459;53.590;10.062;2023-08-06T02:29:08;17.00;99.90
14737;DHT22;7459;53.590;10.062;2023-08-06T02:31:33;17.00;99.90
14737;DHT22;7459;53.590;10.062;2023-08-06T02:33:59;17.00;99.90
14737;DHT22;7459;53.590;10.062;2023-08-06T02:36:25;17.00;99.90
14737;DHT22;7459;53.590;10.062;2023-08-06T02:38:54;17.00;99.90
14737;DHT22;7459;53.590;10.062;2023-08-06T02:41:20;17.00;99.90
14737;DHT22;7459;53.590;10.062;2023-08-06T02:43:46;17.00;99.90
14737;DHT22;7459;53.590;10.062;2023-08-06T02:46:12;17.00;99.90
14737;DHT22;7459;53.590;10.062;2023-08-06T02:48:37;17.00;99.90
14737;DHT22;7459;53.590;10.062;2023-08-06T02:51:03;16.90;99.90
14737;DHT22;7459;53.590;10.062;2023-08-06T02:53:29;16.90;99.90
14737;DHT22;7459;53.590;10.062;2023-08-06T02:55:55;16.90;99.90
14737;DHT22;7459;53.590;10.062;2023-08-06T02:58:20;16.90;99.90
14737;DHT22;7459;53.590;10.062;2023-08-06T03:00:59;16.90;99.90
14737;DHT22;7459;53.590;10.062;2023-08-06T03:03:31;16.90;99.90
14737;DHT22;7459;53.590;10.062;2023-08-06T03:05:57;16.90;99.90
14737;DHT22;7459;53.590;10.062;2023-08-06T03:08:23;16.90;99.90
14737;DHT22;7459;53.590;10.062;2023-08-06T03:10:49;16.90;99.90
14737;DHT22;7459;53.590;10.062;2023-08-06T03:13:16;16.90;99.90
14737;DHT22;7459;53.590;10.062;2023-08-06T03:15:43;16.90;99.90
14737;DHT22;7459;53.590;10.062;2023-08-06T03:18:08;16.90;99.90
14737;DHT22;7459;53.590;10.062;2023-08-06T03:20:34;16.80;99.90
14737;DHT22;7459;53.590;10.062;2023-08-06T03:23:00;16.80;99.90
14737;DHT22;7459;53.590;10.062;2023-08-06T03:25:25;16.80;99.90
14737;DHT22;7459;53.590;10.062;2023-08-06T03:27:51;16.80;99.90
14737;DHT22;7459;53.590;10.062;2023-08-06T03:30:17;16.80;99.90
14737;DHT22;7459;53.590;10.062;2023-08-06T03:32:43;16.80;99.90
14737;DHT22;7459;53.590;10.062;2023-08-06T03:35:08;16.80;99.90
14737;DHT22;7459;53.590;10.062;2023-08-06T03:37:34;16.80;99.90
14737;DHT22;7459;53.590;10.062;2023-08-06T03:40:00;16.80;99.90
14737;DHT22;7459;53.590;10.062;2023-08-06T03:42:25;16.80;99.90
14737;DHT22;7459;53.590;10.062;2023-08-06T03:44:51;16.80;99.90
14737;DHT22;7459;53.590;10.062;2023-08-06T03:47:17;16.80;99.90
14737;DHT22;7459;53.590;10.062;2023-08-06T03:49:42;16.80;99.90
14737;DHT22;7459;53.590;10.062;2023-08-06T03:52:08;16.80;99.90
14737;DHT22;7459;53.590;10.062;2023-08-06T03:54:34;16.80;99.90
14737;DHT22;7459;53.590;10.062;2023-08-06T03:57:00;16.70;99.90
14737;DHT22;7459;53.590;10.062;2023-08-06T03:59:26;16.70;99.90
14737;DHT22;7459;53.590;10.062;2023-08-06T04:01:52;16.70;99.90
14737;DHT22;7459;53.590;10.062;2023-08-06T04:04:17;16.70;99.90
14737;DHT22;7459;53.590;10.062;2023-08-06T04:06:43;16.70;99.90
14737;DHT22;7459;53.590;10.062;2023-08-06T04:09:09;16.70;99.90
14737;DHT22;7459;53.590;10.062;2023-08-06T04:11:34;16.70;99.90
14737;DHT22;7459;53.590;10.062;2023-08-06T04:14:00;16.70;99.90
14737;DHT22;7459;53.590;10.062;2023-08-06T04:16:26;16.70;99.90
14737;DHT22;7459;53.590;10.062;2023-08-06T04:18:51;16.70;99.90
14737;DHT22;7459;53.590;10.062;2023-08-06T04:21:18;16.70;99.90
14737;DHT22;7459;53.590;10.062;2023-08-06T04:23:44;16.70;99.90
14737;DHT22;7459;53.590;10.062;2023-08-06T04:26:10;16.60;99.90
14737;DHT22;7459;53.590;10.062;2023-08-06T04:28:36;16.60;99.90
14737;DHT22;7459;53.590;10.062;2023-08-06T04:31:01;16.60;99.90
14737;DHT22;7459;53.590;10.062;2023-08-06T04:33:27;16.60;99.90
14737;DHT22;7459;53.590;10.062;2023-08-06T04:35:56;16.60;99.90
14737;DHT22;7459;53.590;10.062;2023-08-06T04:38:24;16.60;99.90
14737;DHT22;7459;53.590;10.062;2023-08-06T04:40:50;16.60;99.90
14737;DHT22;7459;53.590;10.062;2023-08-06T04:43:16;16.60;99.90
14737;DHT22;7459;53.590;10.062;2023-08-06T04:45:49;16.50;99.90
14737;DHT22;7459;53.590;10.062;2023-08-06T04:48:16;16.60;99.90
14737;DHT22;7459;53.590;10.062;2023-08-06T04:50:46;16.60;99.90
14737;DHT22;7459;53.590;10.062;2023-08-06T04:53:12;16.50;99.90
14737;DHT22;7459;53.590;10.062;2023-08-06T04:55:38;16.50;99.90
14737;DHT22;7459;53.590;10.062;2023-08-06T04:58:04;16.50;99.90
14737;DHT22;7459;53.590;10.062;2023-08-06T05:00:30;16.50;99.90
14737;DHT22;7459;53.590;10.062;2023-08-06T05:02:55;16.50;99.90
14737;DHT22;7459;53.590;10.062;2023-08-06T05:05:21;16.50;99.90
14737;DHT22;7459;53.590;10.062;2023-08-06T05:07:49;16.50;99.90
14737;DHT22;7459;53.590;10.062;2023-08-06T05:10:15;16.50;99.90
14737;DHT22;7459;53.590;10.062;2023-08-06T05:12:41;16.50;99.90
14737;DHT22;7459;53.590;10.062;2023-08-06T05:15:07;16.50;99.90
14737;DHT22;7459;53.590;10.062;2023-08-06T05:17:33;16.50;99.90
14737;DHT22;7459;53.590;10.062;2023-08-06T05:19:59;16.50;99.90
14737;DHT22;7459;53.590;10.062;2023-08-06T05:22:25;16.40;99.90
14737;DHT22;7459;53.590;10.062;2023-08-06T05:24:51;16.40;99.90
14737;DHT22;7459;53.590;10.062;2023-08-06T05:27:17;16.40;99.90
14737;DHT22;7459;53.590;10.062;2023-08-06T05:29:44;16.40;99.90
14737;DHT22;7459;53.590;10.062;2023-08-06T05:32:10;16.40;99.90
14737;DHT22;7459;53.590;10.062;2023-08-06T05:34:36;16.40;99.90
14737;DHT22;7459;53.590;10.062;2023-08-06T05:37:03;16.40;99.90
14737;DHT22;7459;53.590;10.062;2023-08-06T05:39:29;16.40;99.90
14737;DHT22;7459;53.590;10.062;2023-08-06T05:41:55;16.40;99.90
14737;DHT22;7459;53.590;10.062;2023-08-06T05:44:21;16.40;99.90
14737;DHT22;7459;53.590;10.062;2023-08-06T05:46:48;16.40;99.90
14737;DHT22;7459;53.590;10.062;2023-08-06T05:49:14;16.40;99.90
14737;DHT22;7459;53.590;10.062;2023-08-06T05:51:41;16.40;99.90
14737;DHT22;7459;53.590;10.062;2023-08-06T05:54:07;16.40;99.90
14737;DHT22;7459;53.590;10.062;2023-08-06T05:56:32;16.40;99.90
14737;DHT22;7459;53.590;10.062;2023-08-06T05:58:58;16.40;99.90
14737;DHT22;7459;53.590;10.062;2023-08-06T06:01:24;16.40;99.90
14737;DHT22;7459;53.590;10.062;2023-08-06T06:03:49;16.40;99.90
14737;DHT22;7459;53.590;10.062;2023-08-06T06:06:15;16.40;99.90
14737;DHT22;7459;53.590;10.062;2023-08-06T06:08:41;16.40;99.90
14737;DHT22;7459;53.590;10.062;2023-08-06T06:11:07;16.40;99.90
14737;DHT22;7459;53.590;10.062;2023-08-06T06:13:33;16.50;99.90
14737;DHT22;7459;53.590;10.062;2023-08-06T06:15:59;16.50;99.90
14737;DHT22;7459;53.590;10.062;2023-08-06T06:18:24;16.50;99.90
14737;DHT22;7459;53.590;10.062;2023-08-06T06:20:50;16.50;99.90
14737;DHT22;7459;53.590;10.062;2023-08-06T06:23:16;16.50;99.90
14737;DHT22;7459;53.590;10.062;2023-08-06T06:25:48;16.50;99.90
14737;DHT22;7459;53.590;10.062;2023-08-06T06:28:17;16.50;99.90
14737;DHT22;7459;53.590;10.062;2023-08-06T06:30:43;16.50;99.90
14737;DHT22;7459;53.590;10.062;2023-08-06T06:33:09;16.50;99.90
14737;DHT22;7459;53.590;10.062;2023-08-06T06:35:34;16.40;99.90
14737;DHT22;7459;53.590;10.062;2023-08-06T06:38:00;16.40;99.90
14737;DHT22;7459;53.590;10.062;2023-08-06T06:40:26;16.40;99.90
14737;DHT22;7459;53.590;10.062;2023-08-06T06:42:52;16.40;99.90
14737;DHT22;7459;53.590;10.062;2023-08-06T06:45:17;16.50;99.90
14737;DHT22;7459;53.590;10.062;2023-08-06T06:47:43;16.50;99.90
14737;DHT22;7459;53.590;10.062;2023-08-06T06:50:09;16.50;99.90
14737;DHT22;7459;53.590;10.062;2023-08-06T06:52:35;16.50;99.90
14737;DHT22;7459;53.590;10.062;2023-08-06T06:55:01;16.50;99.90
14737;DHT22;7459;53.590;10.062;2023-08-06T06:57:26;16.50;99.90
14737;DHT22;7459;53.590;10.062;2023-08-06T06:59:52;16.50;99.90
14737;DHT22;7459;53.590;10.062;2023-08-06T07:02:18;16.60;99.90
14737;DHT22;7459;53.590;10.062;2023-08-06T07:04:43;16.60;99.90
14737;DHT22;7459;53.590;10.062;2023-08-06T07:07:09;16.60;99.90
14737;DHT22;7459;53.590;10.062;2023-08-06T07:09:35;16.70;99.90
14737;DHT22;7459;53.590;10.062;2023-08-06T07:12:01;16.70;99.90
14737;DHT22;7459;53.590;10.062;2023-08-06T07:14:28;16.80;99.90
14737;DHT22;7459;53.590;10.062;2023-08-06T07:16:54;16.80;99.90
14737;DHT22;7459;53.590;10.062;2023-08-06T07:19:20;16.80;99.90
14737;DHT22;7459;53.590;10.062;2023-08-06T07:21:46;16.80;99.90
14737;DHT22;7459;53.590;10.062;2023-08-06T07:24:12;16.90;99.90
14737;DHT22;7459;53.590;10.062;2023-08-06T07:26:38;16.90;99.90
14737;DHT22;7459;53.590;10.062;2023-08-06T07:29:04;16.90;99.90
14737;DHT22;7459;53.590;10.062;2023-08-06T07:31:29;16.90;99.90
14737;DHT22;7459;53.590;10.062;2023-08-06T07:33:55;16.90;99.90
14737;DHT22;7459;53.590;10.062;2023-08-06T07:36:21;17.00;99.90
14737;DHT22;7459;53.590;10.062;2023-08-06T07:38:46;17.00;99.90
14737;DHT22;7459;53.590;10.062;2023-08-06T07:41:14;17.00;99.90
14737;DHT22;7459;53.590;10.062;2023-08-06T07:43:40;17.00;99.90
14737;DHT22;7459;53.590;10.062;2023-08-06T07:46:08;17.00;99.90
14737;DHT22;7459;53.590;10.062;2023-08-06T07:48:33;17.00;99.90
14737;DHT22;7459;53.590;10.062;2023-08-06T07:50:59;17.00;99.90
14737;DHT22;7459;53.590;10.062;2023-08-06T07:53:26;17.00;99.90
14737;DHT22;7459;53.590;10.062;2023-08-06T07:55:54;17.00;99.90
14737;DHT22;7459;53.590;10.062;2023-08-06T07:58:21;17.10;99.90
14737;DHT22;7459;53.590;10.062;2023-08-06T08:00:47;17.00;99.90
14737;DHT22;7459;53.590;10.062;2023-08-06T08:03:15;17.10;99.90
14737;DHT22;7459;53.590;10.062;2023-08-06T08:05:42;17.10;99.90
14737;DHT22;7459;53.590;10.062;2023-08-06T08:08:08;17.10;99.90
14737;DHT22;7459;53.590;10.062;2023-08-06T08:10:34;17.10;99.90
14737;DHT22;7459;53.590;10.062;2023-08-06T08:13:03;17.10;99.90
14737;DHT22;7459;53.590;10.062;2023-08-06T08:15:30;17.10;99.90
14737;DHT22;7459;53.590;10.062;2023-08-06T08:17:57;17.10;99.90
14737;DHT22;7459;53.590;10.062;2023-08-06T08:20:23;17.10;99.90
14737;DHT22;7459;53.590;10.062;2023-08-06T08:22:49;17.20;99.90
14737;DHT22;7459;53.590;10.062;2023-08-06T08:25:15;17.20;99.90
14737;DHT22;7459;53.590;10.062;2023-08-06T08:27:41;17.20;99.90
14737;DHT22;7459;53.590;10.062;2023-08-06T08:30:07;17.20;99.90
14737;DHT22;7459;53.590;10.062;2023-08-06T08:32:33;17.20;99.90
14737;DHT22;7459;53.590;10.062;2023-08-06T08:34:59;17.20;99.90
14737;DHT22;7459;53.590;10.062;2023-08-06T08:37:25;17.20;99.90
14737;DHT22;7459;53.590;10.062;2023-08-06T08:39:50;17.20;99.90
14737;DHT22;7459;53.590;10.062;2023-08-06T08:42:17;17.20;99.90
14737;DHT22;7459;53.590;10.062;2023-08-06T08:44:43;17.20;99.90
14737;DHT22;7459;53.590;10.062;2023-08-06T08:47:10;17.30;99.90
14737;DHT22;7459;53.590;10.062;2023-08-06T08:49:37;17.30;99.90
14737;DHT22;7459;53.590;10.062;2023-08-06T08:52:04;17.30;99.90
14737;DHT22;7459;53.590;10.062;2023-08-06T08:54:37;17.30;99.90
14737;DHT22;7459;53.590;10.062;2023-08-06T08:57:04;17.30;99.90
14737;DHT22;7459;53.590;10.062;2023-08-06T08:59:30;17.30;99.90
14737;DHT22;7459;53.590;10.062;2023-08-06T09:01:56;17.30;99.90
14737;DHT22;7459;53.590;10.062;2023-08-06T09:04:22;17.30;99.90
14737;DHT22;7459;53.590;10.062;2023-08-06T09:06:50;17.30;99.90
14737;DHT22;7459;53.590;10.062;2023-08-06T09:09:26;17.30;99.90
14737;DHT22;7459;53.590;10.062;2023-08-06T09:11:56;17.30;99.90
14737;DHT22;7459;53.590;10.062;2023-08-06T09:14:28;17.30;99.90
14737;DHT22;7459;53.590;10.062;2023-08-06T09:16:54;17.30;99.90
14737;DHT22;7459;53.590;10.062;2023-08-06T09:19:20;17.30;99.90
14737;DHT22;7459;53.590;10.062;2023-08-06T09:21:46;17.30;99.90
14737;DHT22;7459;53.590;10.062;2023-08-06T09:24:15;17.30;99.90
14737;DHT22;7459;53.590;10.062;2023-08-06T09:26:42;17.30;99.90
14737;DHT22;7459;53.590;10.062;2023-08-06T09:29:10;17.30;99.90
14737;DHT22;7459;53.590;10.062;2023-08-06T09:31:49;17.30;99.90
14737;DHT22;7459;53.590;10.062;2023-08-06T09:34:19;17.30;99.90
14737;DHT22;7459;53.590;10.062;2023-08-06T09:36:51;17.30;99.90
14737;DHT22;7459;53.590;10.062;2023-08-06T09:39:20;17.30;99.90
14737;DHT22;7459;53.590;10.062;2023-08-06T09:41:48;17.30;99.90
14737;DHT22;7459;53.590;10.062;2023-08-06T09:44:18;17.30;99.90
14737;DHT22;7459;53.590;10.062;2023-08-06T09:46:56;17.30;99.90
14737;DHT22;7459;53.590;10.062;2023-08-06T09:49:40;17.30;99.90
14737;DHT22;7459;53.590;10.062;2023-08-06T09:52:11;17.30;99.90
14737;DHT22;7459;53.590;10.062;2023-08-06T09:54:38;17.30;99.90
14737;DHT22;7459;53.590;10.062;2023-08-06T09:57:05;17.20;99.90
14737;DHT22;7459;53.590;10.062;2023-08-06T09:59:32;17.30;99.90
14737;DHT22;7459;53.590;10.062;2023-08-06T10:01:58;17.30;99.90
14737;DHT22;7459;53.590;10.062;2023-08-06T10:04:24;17.30;99.90
14737;DHT22;7459;53.590;10.062;2023-08-06T10:06:50;17.30;99.90
14737;DHT22;7459;53.590;10.062;2023-08-06T10:09:17;17.20;99.90
14737;DHT22;7459;53.590;10.062;2023-08-06T10:11:50;17.20;99.90
14737;DHT22;7459;53.590;10.062;2023-08-06T10:14:29;17.20;99.90
14737;DHT22;7459;53.590;10.062;2023-08-06T10:16:57;17.30;99.90
14737;DHT22;7459;53.590;10.062;2023-08-06T10:19:26;17.20;99.90
14737;DHT22;7459;53.590;10.062;2023-08-06T10:22:14;17.30;99.90
14737;DHT22;7459;53.590;10.062;2023-08-06T10:25:02;17.30;99.90
14737;DHT22;7459;53.590;10.062;2023-08-06T10:27:53;17.30;99.90
14737;DHT22;7459;53.590;10.062;2023-08-06T10:30:29;17.30;99.90
14737;DHT22;7459;53.590;10.062;2023-08-06T10:33:00;17.30;99.90
14737;DHT22;7459;53.590;10.062;2023-08-06T10:35:47;17.30;99.90
14737;DHT22;7459;53.590;10.062;2023-08-06T10:38:22;17.30;99.90
14737;DHT22;7459;53.590;10.062;2023-08-06T10:43:36;17.30;99.90
14737;DHT22;7459;53.590;10.062;2023-08-06T10:46:28;17.30;99.90
14737;DHT22;7459;53.590;10.062;2023-08-06T10:48:54;17.30;99.90
14737;DHT22;7459;53.590;10.062;2023-08-06T10:51:19;17.30;99.90
14737;DHT22;7459;53.590;10.062;2023-08-06T10:53:47;17.30;99.90
14737;DHT22;7459;53.590;10.062;2023-08-06T10:56:20;17.30;99.90
14737;DHT22;7459;53.590;10.062;2023-08-06T10:58:48;17.30;99.90
14737;DHT22;7459;53.590;10.062;2023-08-06T11:01:15;17.30;99.90
14737;DHT22;7459;53.590;10.062;2023-08-06T11:03:42;17.20;99.90
14737;DHT22;7459;53.590;10.062;2023-08-06T11:06:09;17.30;99.90
14737;DHT22;7459;53.590;10.062;2023-08-06T11:08:38;17.30;99.90
14737;DHT22;7459;53.590;10.062;2023-08-06T11:11:15;17.30;99.90
14737;DHT22;7459;53.590;10.062;2023-08-06T11:13:42;17.30;99.90
14737;DHT22;7459;53.590;10.062;2023-08-06T11:16:10;17.30;99.90
14737;DHT22;7459;53.590;10.062;2023-08-06T11:18:36;17.30;99.90
14737;DHT22;7459;53.590;10.062;2023-08-06T11:21:02;17.30;99.90
14737;DHT22;7459;53.590;10.062;2023-08-06T11:23:28;17.30;99.90
14737;DHT22;7459;53.590;10.062;2023-08-06T11:25:54;17.30;99.90
14737;DHT22;7459;53.590;10.062;2023-08-06T11:28:20;17.30;99.90
14737;DHT22;7459;53.590;10.062;2023-08-06T11:30:47;17.30;99.90
14737;DHT22;7459;53.590;10.062;2023-08-06T11:33:13;17.30;99.90
14737;DHT22;7459;53.590;10.062;2023-08-06T11:35:39;17.30;99.90
14737;DHT22;7459;53.590;10.062;2023-08-06T11:38:06;17.30;99.90
14737;DHT22;7459;53.590;10.062;2023-08-06T11:40:32;17.30;99.90
14737;DHT22;7459;53.590;10.062;2023-08-06T11:42:58;17.30;99.90
14737;DHT22;7459;53.590;10.062;2023-08-06T11:45:24;17.40;99.90
14737;DHT22;7459;53.590;10.062;2023-08-06T11:47:51;17.40;99.90
14737;DHT22;7459;53.590;10.062;2023-08-06T11:50:27;17.40;99.90
14737;DHT22;7459;53.590;10.062;2023-08-06T11:52:56;17.40;99.90
14737;DHT22;7459;53.590;10.062;2023-08-06T11:55:26;17.40;99.90
14737;DHT22;7459;53.590;10.062;2023-08-06T11:57:54;17.40;99.90
14737;DHT22;7459;53.590;10.062;2023-08-06T12:00:23;17.50;99.90
14737;DHT22;7459;53.590;10.062;2023-08-06T12:02:50;17.40;99.90
14737;DHT22;7459;53.590;10.062;2023-08-06T12:05:28;17.40;99.90
14737;DHT22;7459;53.590;10.062;2023-08-06T12:07:56;17.40;99.90
14737;DHT22;7459;53.590;10.062;2023-08-06T12:10:25;17.40;99.90
14737;DHT22;7459;53.590;10.062;2023-08-06T12:12:52;17.40;99.90
14737;DHT22;7459;53.590;10.062;2023-08-06T12:15:18;17.40;99.90
14737;DHT22;7459;53.590;10.062;2023-08-06T12:17:44;17.40;99.90
14737;DHT22;7459;53.590;10.062;2023-08-06T12:20:10;17.40;99.90
14737;DHT22;7459;53.590;10.062;2023-08-06T12:22:37;17.40;99.90
14737;DHT22;7459;53.590;10.062;2023-08-06T12:25:08;17.40;99.90
14737;DHT22;7459;53.590;10.062;2023-08-06T12:27:38;17.30;99.90
14737;DHT22;7459;53.590;10.062;2023-08-06T12:30:05;17.40;99.90
14737;DHT22;7459;53.590;10.062;2023-08-06T12:32:32;17.40;99.90
14737;DHT22;7459;53.590;10.062;2023-08-06T12:34:58;17.30;99.90
14737;DHT22;7459;53.590;10.062;2023-08-06T12:37:25;17.30;99.90
14737;DHT22;7459;53.590;10.062;2023-08-06T12:39:50;17.30;99.90
14737;DHT22;7459;53.590;10.062;2023-08-06T12:42:16;17.30;99.90
14737;DHT22;7459;53.590;10.062;2023-08-06T12:44:42;17.30;99.90
14737;DHT22;7459;53.590;10.062;2023-08-06T12:47:08;17.40;99.90
14737;DHT22;7459;53.590;10.062;2023-08-06T12:49:34;17.40;99.90
14737;DHT22;7459;53.590;10.062;2023-08-06T12:52:00;17.40;99.90
14737;DHT22;7459;53.590;10.062;2023-08-06T12:54:26;17.40;99.90
14737;DHT22;7459;53.590;10.062;2023-08-06T12:56:52;17.40;99.90
14737;DHT22;7459;53.590;10.062;2023-08-06T12:59:18;17.50;99.90
14737;DHT22;7459;53.590;10.062;2023-08-06T13:01:45;17.60;99.90
14737;DHT22;7459;53.590;10.062;2023-08-06T13:04:11;17.60;99.90
14737;DHT22;7459;53.590;10.062;2023-08-06T13:06:37;17.60;99.90
14737;DHT22;7459;53.590;10.062;2023-08-06T13:09:04;17.60;99.90
14737;DHT22;7459;53.590;10.062;2023-08-06T13:11:31;17.60;99.90
14737;DHT22;7459;53.590;10.062;2023-08-06T13:14:05;17.70;99.90
14737;DHT22;7459;53.590;10.062;2023-08-06T13:16:31;17.70;99.90
14737;DHT22;7459;53.590;10.062;2023-08-06T13:18:57;17.70;99.90
14737;DHT22;7459;53.590;10.062;2023-08-06T13:21:23;17.70;99.90
14737;DHT22;7459;53.590;10.062;2023-08-06T13:23:49;17.80;99.90
14737;DHT22;7459;53.590;10.062;2023-08-06T13:26:15;17.90;99.90
14737;DHT22;7459;53.590;10.062;2023-08-06T13:28:43;17.90;99.90
14737;DHT22;7459;53.590;10.062;2023-08-06T13:31:10;18.00;99.90
14737;DHT22;7459;53.590;10.062;2023-08-06T13:33:35;18.00;99.90
14737;DHT22;7459;53.590;10.062;2023-08-06T13:36:01;18.00;99.90
14737;DHT22;7459;53.590;10.062;2023-08-06T13:38:27;18.00;99.90
14737;DHT22;7459;53.590;10.062;2023-08-06T13:40:52;18.10;99.90
14737;DHT22;7459;53.590;10.062;2023-08-06T13:43:18;18.10;99.90
14737;DHT22;7459;53.590;10.062;2023-08-06T13:45:44;18.20;99.90
14737;DHT22;7459;53.590;10.062;2023-08-06T13:48:10;18.20;99.90
14737;DHT22;7459;53.590;10.062;2023-08-06T13:50:36;18.20;99.90
14737;DHT22;7459;53.590;10.062;2023-08-06T13:53:02;18.20;99.90
14737;DHT22;7459;53.590;10.062;2023-08-06T13:55:28;18.20;99.90
14737;DHT22;7459;53.590;10.062;2023-08-06T13:57:55;18.20;99.90
14737;DHT22;7459;53.590;10.062;2023-08-06T14:00:21;18.20;99.90
14737;DHT22;7459;53.590;10.062;2023-08-06T14:02:46;18.20;99.90
14737;DHT22;7459;53.590;10.062;2023-08-06T14:05:13;18.30;99.90
14737;DHT22;7459;53.590;10.062;2023-08-06T14:07:38;18.30;99.90
14737;DHT22;7459;53.590;10.062;2023-08-06T14:10:04;18.30;99.90
14737;DHT22;7459;53.590;10.062;2023-08-06T14:12:31;18.30;99.90
14737;DHT22;7459;53.590;10.062;2023-08-06T14:14:57;18.40;99.90
14737;DHT22;7459;53.590;10.062;2023-08-06T14:17:22;18.30;99.90
14737;DHT22;7459;53.590;10.062;2023-08-06T14:19:48;18.40;99.90
14737;DHT22;7459;53.590;10.062;2023-08-06T14:22:14;18.40;99.90
14737;DHT22;7459;53.590;10.062;2023-08-06T14:24:39;18.40;99.90
14737;DHT22;7459;53.590;10.062;2023-08-06T14:27:06;18.30;99.90
14737;DHT22;7459;53.590;10.062;2023-08-06T14:29:32;18.30;99.90
14737;DHT22;7459;53.590;10.062;2023-08-06T14:31:57;18.30;99.90
14737;DHT22;7459;53.590;10.062;2023-08-06T14:34:23;18.30;99.90
14737;DHT22;7459;53.590;10.062;2023-08-06T14:36:49;18.30;99.90
14737;DHT22;7459;53.590;10.062;2023-08-06T14:39:14;18.30;99.90
14737;DHT22;7459;53.590;10.062;2023-08-06T14:41:40;18.20;99.90
14737;DHT22;7459;53.590;10.062;2023-08-06T14:44:06;18.30;99.90
14737;DHT22;7459;53.590;10.062;2023-08-06T14:46:32;18.20;99.90
14737;DHT22;7459;53.590;10.062;2023-08-06T14:48:58;18.20;99.90
14737;DHT22;7459;53.590;10.062;2023-08-06T14:51:24;18.10;99.90
14737;DHT22;7459;53.590;10.062;2023-08-06T14:53:49;18.20;99.90
14737;DHT22;7459;53.590;10.062;2023-08-06T14:56:15;18.20;99.90
14737;DHT22;7459;53.590;10.062;2023-08-06T14:58:41;18.20;99.90
14737;DHT22;7459;53.590;10.062;2023-08-06T15:01:07;18.20;99.90
14737;DHT22;7459;53.590;10.062;2023-08-06T15:03:33;18.20;99.90
14737;DHT22;7459;53.590;10.062;2023-08-06T15:05:59;18.20;99.90
14737;DHT22;7459;53.590;10.062;2023-08-06T15:08:25;18.10;99.90
14737;DHT22;7459;53.590;10.062;2023-08-06T15:10:51;18.10;99.90
14737;DHT22;7459;53.590;10.062;2023-08-06T15:13:18;18.10;99.90
14737;DHT22;7459;53.590;10.062;2023-08-06T15:15:46;18.10;99.90
14737;DHT22;7459;53.590;10.062;2023-08-06T15:18:13;18.10;99.90
14737;DHT22;7459;53.590;10.062;2023-08-06T15:20:38;18.10;99.90
14737;DHT22;7459;53.590;10.062;2023-08-06T15:23:04;18.00;99.90
14737;DHT22;7459;53.590;10.062;2023-08-06T15:25:30;18.00;99.90
14737;DHT22;7459;53.590;10.062;2023-08-06T15:27:55;18.00;99.90
14737;DHT22;7459;53.590;10.062;2023-08-06T15:30:21;18.00;99.90
14737;DHT22;7459;53.590;10.062;2023-08-06T15:32:47;17.90;99.90
14737;DHT22;7459;53.590;10.062;2023-08-06T15:35:13;17.90;99.90
14737;DHT22;7459;53.590;10.062;2023-08-06T15:37:39;17.90;99.90
14737;DHT22;7459;53.590;10.062;2023-08-06T15:40:08;17.90;99.90
14737;DHT22;7459;53.590;10.062;2023-08-06T15:42:34;17.90;99.90